Weather at Parkland Airport

Public forecast

Using degrees Celsius for public forecast. Weather courtesy of forecast.io.

Closest aviation weather report (METAR) to Parkland Airport

Closest report is Edmonton / Villeneuve Airport, 11.7 nm (21.6 km) N.

2024/07/12 23:00 (retrieved 1 hour ago)

CZVL 122300Z AUTO 31011G21KT 250V340 9SM CLR 24/05 A3004 RMK SLP174 DENSITY ALT 3700FT

Closest aviation forecast (TAF) to Parkland Airport

Closest forecast is Edmonton (CFB Namao) Heliport, 17.1 nm (31.7 km) NE.

2024/07/12 18:06 Ammendment (retrieved 6 hours ago)

TAF AMD TAF AMD CYED 122102Z 1218/1306 CNL RMK END OF FLY PROGRAM NXT FCST BY 130000Z